Terminal Aerodrome Forecast
Issued by NWS Binghamton, NY

Home | Current Version | Previous Version | Text Only | Print | Product List | Glossary On
Versions: 1 2 3 4 5 6 7 8 9 10 11 12 13 14 15 16 17
000
FTUS41 KBGM 261348 AAA
TAFSYR
TAF AMD
KSYR 261348Z 2614/2712 28005KT P6SM SCT070
     FM261600 31012KT P6SM BKN070
     FM270900 VRB05KT P6SM -RA OVC040
      TEMPO 2709/2712 OVC025=

USA.gov is the U.S. government's official web portal to all federal, state and local government web resources and services.